Site contains unofficial IBTrACS data. Visit the IBTrACS Website to access archived data.

1883 Tropical Storm NOT_NAMED (1883260N19280)


IBTrACS version v04r00. Visit IBTrACS website for data access.
Please direct all questions to the IBTrACS Q and A forum

Storm track - Intensity - Wind Radii - Intensity Data - Source Data - All data

Summary Information

Storm ID 1883260N19280
Start Sep 16 12Z
Landfall Sep 20 03Z, Sep 22 15Z
Max Intensity 50 kt (Sep 17 18Z)
End Sep 22 18Z
ATCF IDs
Track status Best track data.

Storm track plot

Map of storm track

Intensity plots

Map of storm track

Radial wind information

No radial wind information for this storm


Position and Intensity Table

BASIN ISO_TIME_________ NATURE LAT LON MLC WIND
degrees north degrees east kts
NA 1883-09-16 12:00:00 TS 19.00 -80.00 35
NA 15:00:00 TS 19.00 -80.16 37
NA 18:00:00 TS 19.00 -80.30 40
NA 21:00:00 TS 19.00 -80.40 42
NA 1883-09-17 00:00:00 TS 19.00 -80.50 45
NA 03:00:00 TS 19.00 -80.65 45
NA 06:00:00 TS 19.00 -80.80 45
NA 09:00:00 TS 19.00 -80.89 45
NA 12:00:00 TS 19.00 -81.00 45
NA 15:00:00 TS 18.99 -81.23 47
NA 18:00:00 TS 19.00 -81.50 50
NA 21:00:00 TS 19.04 -81.75 50
NA 1883-09-18 00:00:00 TS 19.10 -82.00 50
NA 03:00:00 TS 19.16 -82.25 50
NA 06:00:00 TS 19.20 -82.50 50
NA 09:00:00 TS 19.19 -82.74 50
NA 12:00:00 TS 19.20 -83.00 50
NA 15:00:00 TS 19.29 -83.34 47
NA 18:00:00 TS 19.40 -83.70 45
NA 21:00:00 TS 19.50 -84.01 45
NA 1883-09-19 00:00:00 TS 19.60 -84.30 45
NA 03:00:00 TS 19.70 -84.60 45
NA 06:00:00 TS 19.80 -84.90 45
NA 09:00:00 TS 19.91 -85.18 45
NA 12:00:00 TS 20.00 -85.50 45
NA 15:00:00 TS 20.05 -85.93 45
NA 18:00:00 TS 20.10 -86.40 45
NA 21:00:00 TS 20.20 -86.85 45
NA 1883-09-20 00:00:00 TS 20.30 -87.30 45
NA 03:00:00 TS 20.36 -87.76 42
NA 06:00:00 TS 20.40 -88.20 40
NA 09:00:00 TS 20.46 -88.61 37
NA 12:00:00 TS 20.50 -89.00 35
NA 15:00:00 TS 20.46 -89.41 32
NA 18:00:00 TS 20.40 -89.80 30
NA 21:00:00 TS 20.36 -90.15 32
NA 1883-09-21 00:00:00 TS 20.30 -90.50 35
NA 03:00:00 TS 20.20 -90.90 37
NA 06:00:00 TS 20.10 -91.30 40
NA 09:00:00 TS 20.06 -91.68 42
NA 12:00:00 TS 20.00 -92.00 45
NA 15:00:00 TS 19.82 -92.22 45
NA 18:00:00 TS 19.60 -92.40 45
NA 21:00:00 TS 19.40 -92.60 45
NA 1883-09-22 00:00:00 TS 19.20 -92.80 45
NA 03:00:00 TS 18.99 -93.01 42
NA 06:00:00 TS 18.80 -93.20 40
NA 09:00:00 TS 18.65 -93.34 37
NA 12:00:00 TS 18.50 -93.50 35
NA 15:00:00 TS 18.31 -93.73 27
NA 18:00:00 TS 18.10 -94.00 20

Source Information

Agency Information
USA
TOKYO
CMA
HKO
NEWDELHI
REUNION
BOM
NADI
WELLINGTON
DS824
TD9636
TD9635
NEUMANN
MLC

All available IBTrACS Data

SEASON BASIN SUBBASIN ISO_TIME_________ NATURE LAT LON DIST2LAND LANDFALL IFLAG USA SSHS MLC LAT MLC LON MLC CLASS MLC WIND STORM SPEED STORM DIR
Year degrees north degrees east km km 1 degrees north degrees east kts kts degrees
1883 NA CS 1883-09-16 12:00:00 TS 19.00 -80.00 190 190 _____________O -1 19.00 -80.00 TS 35 3 270
1883 NA CS 15:00:00 TS 19.00 -80.16 209 209 _____________P -1 19.00 -80.16 TS 37 3 270
1883 NA CS 18:00:00 TS 19.00 -80.30 219 219 _____________O -1 19.00 -80.30 TS 40 2 270
1883 NA CS 21:00:00 TS 19.00 -80.40 229 229 _____________P -1 19.00 -80.40 TS 42 2 270
1883 NA CS 1883-09-17 00:00:00 TS 19.00 -80.50 238 238 _____________O -1 19.00 -80.50 TS 45 2 270
1883 NA CS 03:00:00 TS 19.00 -80.65 248 258 _____________P -1 19.00 -80.65 TS 45 3 270
1883 NA CS 06:00:00 TS 19.00 -80.80 268 268 _____________O -1 19.00 -80.80 TS 45 2 270
1883 NA CS 09:00:00 TS 19.00 -80.89 278 278 _____________P -1 19.00 -80.89 TS 45 2 270
1883 NA CS 12:00:00 TS 19.00 -81.00 288 288 _____________O -1 19.00 -81.00 TS 45 3 269
1883 NA CS 15:00:00 TS 18.99 -81.23 308 300 _____________P -1 18.99 -81.23 TS 47 5 270
1883 NA CS 18:00:00 TS 19.00 -81.50 300 291 _____________O -1 19.00 -81.50 TS 50 5 276
1883 NA CS 21:00:00 TS 19.04 -81.75 291 270 _____________P -1 19.04 -81.75 TS 50 5 282
1883 NA CS 1883-09-18 00:00:00 TS 19.10 -82.00 270 253 _____________O -1 19.10 -82.00 TS 50 5 284
1883 NA CS 03:00:00 TS 19.16 -82.25 253 248 _____________P -1 19.16 -82.25 TS 50 5 282
1883 NA CS 06:00:00 TS 19.20 -82.50 248 246 _____________O -1 19.20 -82.50 TS 50 5 274
1883 NA CS 09:00:00 TS 19.19 -82.74 246 246 _____________P -1 19.19 -82.74 TS 50 5 270
1883 NA CS 12:00:00 TS 19.20 -83.00 246 238 _____________O -1 19.20 -83.00 TS 50 6 279
1883 NA CS 15:00:00 TS 19.29 -83.34 240 238 _____________P -1 19.29 -83.34 TS 47 7 287
1883 NA CS 18:00:00 TS 19.40 -83.70 242 241 _____________O -1 19.40 -83.70 TS 45 7 289
1883 NA CS 21:00:00 TS 19.50 -84.01 246 246 _____________P -1 19.50 -84.01 TS 45 6 289
1883 NA CS 1883-09-19 00:00:00 TS 19.60 -84.30 246 234 _____________O -1 19.60 -84.30 TS 45 6 290
1883 NA CS 03:00:00 TS 19.70 -84.60 235 223 _____________P -1 19.70 -84.60 TS 45 6 289
1883 NA CS 06:00:00 TS 19.80 -84.90 223 203 _____________O -1 19.80 -84.90 TS 45 6 291
1883 NA CS 09:00:00 TS 19.91 -85.18 203 171 _____________P -1 19.91 -85.18 TS 45 6 290
1883 NA CS 12:00:00 TS 20.00 -85.50 171 137 _____________O -1 20.00 -85.50 TS 45 7 281
1883 NA CS 15:00:00 TS 20.05 -85.93 130 94 _____________P -1 20.05 -85.93 TS 45 9 277
1883 NA CS 18:00:00 TS 20.10 -86.40 94 61 _____________O -1 20.10 -86.40 TS 45 9 280
1883 NA CS 21:00:00 TS 20.20 -86.85 61 15 _____________P -1 20.20 -86.85 TS 45 9 283
1883 NA CS 1883-09-20 00:00:00 TS 20.30 -87.30 15 0 _____________O -1 20.30 -87.30 TS 45 9 280
1883 NA NA 03:00:00 TS 20.36 -87.76 0 0 _____________P -1 20.36 -87.76 TS 42 9 277
1883 NA NA 06:00:00 TS 20.40 -88.20 0 0 _____________O -1 20.40 -88.20 TS 40 8 278
1883 NA NA 09:00:00 TS 20.46 -88.61 0 0 _____________P -1 20.46 -88.61 TS 37 8 278
1883 NA NA 12:00:00 TS 20.50 -89.00 0 0 _____________O -1 20.50 -89.00 TS 35 7 270
1883 NA NA 15:00:00 TS 20.46 -89.41 0 0 _____________P -1 20.46 -89.41 TS 32 8 262
1883 NA NA 18:00:00 TS 20.40 -89.80 0 0 _____________O -1 20.40 -89.80 TD 30 7 261
1883 NA NA 21:00:00 TS 20.36 -90.15 0 0 _____________P -1 20.36 -90.15 TD 32 7 261
1883 NA GM 1883-09-21 00:00:00 TS 20.30 -90.50 0 0 _____________O -1 20.30 -90.50 TS 35 7 257
1883 NA GM 03:00:00 TS 20.20 -90.90 41 41 _____________P -1 20.20 -90.90 TS 37 8 255
1883 NA GM 06:00:00 TS 20.10 -91.30 77 77 _____________O -1 20.10 -91.30 TS 40 7 260
1883 NA GM 09:00:00 TS 20.06 -91.68 113 113 _____________P -1 20.06 -91.68 TS 42 7 261
1883 NA GM 12:00:00 TS 20.00 -92.00 133 124 _____________O -1 20.00 -92.00 TS 45 6 245
1883 NA GM 15:00:00 TS 19.82 -92.22 124 111 _____________P -1 19.82 -92.22 TS 45 6 223
1883 NA GM 18:00:00 TS 19.60 -92.40 111 89 _____________O -1 19.60 -92.40 TS 45 6 220
1883 NA GM 21:00:00 TS 19.40 -92.60 89 67 _____________P -1 19.40 -92.60 TS 45 6 223
1883 NA GM 1883-09-22 00:00:00 TS 19.20 -92.80 67 54 _____________O -1 19.20 -92.80 TS 45 6 223
1883 NA GM 03:00:00 TS 18.99 -93.01 54 49 _____________P -1 18.99 -93.01 TS 42 6 223
1883 NA GM 06:00:00 TS 18.80 -93.20 49 44 _____________O -1 18.80 -93.20 TS 40 5 223
1883 NA GM 09:00:00 TS 18.65 -93.34 33 22 _____________P -1 18.65 -93.34 TS 37 4 223
1883 NA GM 12:00:00 TS 18.50 -93.50 22 0 _____________O -1 18.50 -93.50 TS 35 5 227
1883 NA GM 15:00:00 TS 18.31 -93.73 0 0 _____________P -1 18.31 -93.73 TS 27 6 230
1883 NA NA 18:00:00 TS 18.10 -94.00 0 _____________O -1 18.10 -94.00 TD 20 7 231